Brocton, NY

11:26 AM EST on January 29, 2015 (GMT -0500)
Pecor St. | Change Station
CLOSE
Current Station
Personal Weather Station
Location: Portland, NY
Elevation: 712 ft
Nearby Weather Stations
Active Advisory: Winter Weather Advisory

Elev 712 ft 42.39 °N, 79.47 °W | Updated 13 minutes ago

Overcast
Overcast
34.5 °F
Feels Like 31 °F
N
3.7
Wind Variable Wind from South

Today
High -- | Low -- °F
--% Chance of Precip.
Yesterday
High -- | Low -- °F
Precip. -- in
7:34 AM 5:27 PM
Waxing Gibbous, 75% visible
Pressure 29.86 in
Visibility 10.0 miles
Clouds Overcast 5500 ft
Windchill 31 °F
Dew Point 14 °F
Humidity 43%
Rainfall 0.00 in
Snow Depth Not available.
UV 1 out of 12
Pollen .10 out of 12
Air Quality Not available.
Flu Activity Not available.
METAR KDKK 291553Z AUTO 17019G29KT 10SM -RA OVC055 03/M12 A2982 RMK AO2 PK WND 16031/1512 RAB45 PRESFR SLP110 P0000 T00331117

More Conditions Fewer Conditions

Pressure 29.86 in
Visibility 10.0 miles
Clouds Overcast 5500 ft
Windchill 31 °F
Dew Point 14 °F
Humidity 43%
Rainfall 0.00 in
Snow Depth Not available.
UV 1 out of 12
Pollen .10 out of 12
Air Quality Not available.
Flu Activity Not available.
METAR KDKK 291553Z AUTO 17019G29KT 10SM -RA OVC055 03/M12 A2982 RMK AO2 PK WND 16031/1512 RAB45 PRESFR SLP110 P0000 T00331117

More Conditions Fewer Conditions

10-Day Weather Forecast

Almanac

Astronomy

Jan. 29, 2015 Rise Set
Actual Time
Civil Twilight
Nautical Twilight
Astronomical Twilight
Moon
Length of Visible Light
Length of Day
Tomorrow will be .
, % of the Moon is Illuminated

Today's Extremes

State Highs State Lows

Community

WunderPhotos

Upload Photos

1,791,466 photos uploaded!

WunderBlogs® & News

Nearby

Air Quality

  Air Quality AQ Index Pollutant
Not available.

Snow Depth

Station Depth Elevation

Earthquake Activity

City Distance Mag. Time & Date
Minimum magnitude displayed is 2.5.

Coastal Water Temperatures

Place Temperature

Nearby Weather Stations